aviador You're here:

DIAP Decoded Metar

ABIDJAN in IVORY COAST
Report Time2017-09-23 08:30:00
UTC Time2017-09-23 09:00:21
Flight Rules vfr VFR
Wind200° at 06 kt
W.Decomp.*RWY 21: 6.0 kt HW 0.5 kt LCW
W.Rank200° ranks 4
Current wind is below 200° avg. (6.4)
Visibility8000 m
Phenomena:N/A
Clouds:Scattered 012 Hf
Broken 040 Hf
Expected CloudBase > 800 ft AGL from Temp-Dew spread
Ceiling4,000 ft
Temp26°C (ISA +11)
Dew Point24°C (89% RH)
QNH1015 hPa
Density Alt1,627 ft
Elevation26 ft
Report Wrong Elevation
Raw Report
METAR DIAP 230830Z 20006KT 8000 SCT012 BKN040 26/24 Q1015 NOSIG=

Extra information for DIAP:More info

Metar Taf Metar & Taf Last 4 Metars F.Rules Stats Wind Profile Meteogram Temp Stats Airport Information Weather charts Add Link Nearby VenuesMetar ALERT Operation Metar Decoded Social comments